Date,TemperatureHighF,TemperatureAvgF,TemperatureLowF,DewpointHighF,DewpointAvgF,DewpointLowF,HumidityHigh,HumidityAvg,HumidityLow,PressureMaxIn,PressureMinIn,WindSpeedMaxMPH,WindSpeedAvgMPH,GustSpeedMaxMPH,PrecipitationSumIn
2013-1-1,40,37,27,30,25,12,71,63,49,30.01,29.84,7,2,14,0.01
2013-1-2,34,28,23,16,13,11,61,55,44,30.18,30.01,7,2,11,0.00
2013-1-3,35,30,24,19,17,15,73,59,45,30.19,30.07,4,1,9,0.00
2013-1-4,40,35,30,24,22,20,68,60,50,30.08,29.95,10,2,13,0.00
2013-1-5,45,37,32,24,22,19,63,55,42,30.28,30.02,10,2,13,0.00
2013-1-6,48,40,33,33,28,23,89,65,48,30.22,29.97,5,1,8,0.00
2013-1-7,48,40,33,30,26,21,77,59,39,30.39,30.05,8,1,10,0.00
2013-1-8,50,40,31,33,29,25,81,68,52,30.43,30.34,3,1,9,0.00
2013-1-9,49,41,31,39,34,28,90,76,65,30.38,30.12,5,1,13,0.00
2013-1-10,50,44,38,34,26,24,65,52,38,30.54,30.23,8,2,12,0.00
2013-1-11,45,40,36,44,33,25,96,75,59,30.53,30.09,2,0,6,0.58
2013-1-12,48,45,42,45,44,41,96,94,91,30.17,30.07,4,0,6,0.02
2013-1-13,48,46,43,47,45,42,98,96,92,30.15,30.01,3,0,5,0.01
2013-1-14,57,50,40,54,44,30,98,80,50,30.29,29.90,6,2,12,0.13
2013-1-15,40,38,35,36,29,26,90,73,62,30.35,30.21,4,1,9,0.13
2013-1-16,37,34,32,34,32,30,95,93,82,30.21,29.82,4,1,7,0.67
2013-1-17,44,40,36,34,29,25,88,67,54,30.09,29.91,5,1,11,0.04
2013-1-18,36,29,26,25,11,4,67,49,32,30.48,30.00,9,2,14,0.00
2013-1-19,51,40,28,30,24,12,71,53,38,30.40,29.91,7,2,10,0.00
2013-1-20,56,43,30,31,24,11,74,49,24,30.04,29.69,13,3,21,0.00
2013-1-21,32,29,25,18,12,8,65,50,42,30.09,29.84,6,1,10,0.00
2013-1-22,27,20,13,13,2,-7,71,46,28,30.21,29.83,9,3,17,0.00
2013-1-23,20,15,10,2,-3,-7,59,46,33,30.25,30.16,8,2,13,0.00
2013-1-24,24,17,12,4,0,-5,69,49,28,30.41,30.13,11,3,17,0.00
2013-1-25,24,18,12,16,6,-3,86,61,42,30.42,30.07,6,1,11,0.00
2013-1-26,28,21,15,13,9,6,84,62,42,30.38,30.05,10,2,13,0.00
2013-1-27,36,26,18,13,11,8,70,53,35,30.53,30.38,12,1,12,0.00
2013-1-28,36,31,25,33,25,13,93,79,55,30.49,30.00,4,1,6,0.01
2013-1-29,57,43,36,44,39,33,94,86,59,30.15,29.99,4,1,8,0.05
2013-1-30,61,47,39,58,46,38,97,94,87,30.06,29.35,3,0,9,0.11
2013-1-31,62,46,29,60,32,10,95,61,36,29.79,29.05,17,5,27,0.97